»·PEaware :: N811A KOAK-KMRY

N811A :: KOAK-KMRY

FLIGHT INFORMATION

Flight Status: Arrived
Operator: Privately registered:
United States
More flights under this callsign
Pilot: Anonymous 29969 (29969)
Aircraft: Unknown
(ZZZZ)
More flights by this aircraft type
Origin: KOAK Metro Oakland Intl
United States
Destination: KMRY Monterey Peninsula
United States
More flights between these airports :: More routes between these airports
Route: NUEVO8 SNS
File this flight plan on PilotEdge
Remarks: Turboprop
Altitude:
(Current/Filed)
11,000ft
Speed:
(Current/Filed)
350kts
Departed: 07-Aug-21 12:12 PM
Arrived: 07-Aug-21 12:51 PM
Distance/Time
Traveled:
70nm/0:39
Distance/Time
To Go:
Arrived

Flight Plot

Page will automatically refresh every two minutes.

Flight plan parsing failed; only flown route is shown


Map Options




Map Legend


Flown Route
Filed Route
Departure Airport
Arrival Airport
Navaid (VOR, NDB)
Fix

Horizontal Profiles

Position Reports

Time Latitude Longitude Heading Altitude Ground
Speed
07-Aug-21 11:58 37.728601 -122.211549 0 8ft 0kts
07-Aug-21 11:59 37.728601 -122.211549 215 8ft 0kts
07-Aug-21 12:00 37.728601 -122.211549 215 8ft 0kts
07-Aug-21 12:01 37.728601 -122.211549 215 8ft 0kts
07-Aug-21 12:02 37.728601 -122.211549 215 8ft 0kts
07-Aug-21 12:03 37.728601 -122.211549 215 8ft 0kts
07-Aug-21 12:04 37.728598 -122.211551 213 8ft 0kts
07-Aug-21 12:05 37.727618 -122.210109 111 8ft 0kts
07-Aug-21 12:06 37.726553 -122.206774 106 8ft 15kts
07-Aug-21 12:07 37.725653 -122.204496 180 8ft 0kts
07-Aug-21 12:08 37.725653 -122.204496 180 8ft 0kts
07-Aug-21 12:09 37.725653 -122.204496 180 8ft 0kts
07-Aug-21 12:10 37.724970 -122.205120 287 8ft 0kts
07-Aug-21 12:11 37.729599 -122.220019 288 302ft 111kts
07-Aug-21 12:12 37.746208 -122.271064 291 1725ft 204kts
07-Aug-21 12:14 37.769301 -122.346976 292 1993ft 248kts
07-Aug-21 12:15 37.792314 -122.423456 291 3269ft 216kts
07-Aug-21 12:16 37.782174 -122.486529 212 6307ft 232kts
07-Aug-21 12:17 37.726922 -122.528187 193 9325ft 232kts
07-Aug-21 12:18 37.660506 -122.544770 184 10994ft 290kts
07-Aug-21 12:19 37.572677 -122.554108 184 10991ft 324kts
07-Aug-21 12:20 37.483596 -122.564241 184 10992ft 319kts
07-Aug-21 12:21 37.395910 -122.573857 184 10993ft 319kts
07-Aug-21 12:22 37.307714 -122.583406 184 10993ft 319kts
07-Aug-21 12:23 37.219234 -122.587335 159 11001ft 317kts
07-Aug-21 12:24 37.163108 -122.503869 137 11014ft 319kts
07-Aug-21 12:25 37.090494 -122.440826 144 11055ft 318kts
07-Aug-21 12:26 37.037507 -122.352997 121 11054ft 320kts
07-Aug-21 12:27 36.990834 -122.257827 122 11049ft 323kts
07-Aug-21 12:28 36.943265 -122.161990 122 11006ft 323kts
07-Aug-21 12:29 36.895609 -122.066020 122 11009ft 323kts
07-Aug-21 12:30 36.848243 -121.970912 122 11009ft 323kts
07-Aug-21 12:31 36.803567 -121.881647 122 9835ft 271kts
07-Aug-21 12:32 36.763988 -121.802342 122 7830ft 269kts
07-Aug-21 12:33 36.724620 -121.723905 122 6122ft 254kts
07-Aug-21 12:34 36.687329 -121.649776 121 6093ft 249kts
07-Aug-21 12:35 36.639804 -121.590315 154 6084ft 246kts
07-Aug-21 12:36 36.577124 -121.556657 156 6094ft 246kts
07-Aug-21 12:37 36.513982 -121.522864 156 6095ft 246kts
07-Aug-21 12:38 36.461781 -121.474744 110 6096ft 240kts
07-Aug-21 12:39 36.438458 -121.398904 109 6090ft 230kts
07-Aug-21 12:40 36.470495 -121.359275 324 6086ft 226kts
07-Aug-21 12:41 36.464047 -121.429587 243 6090ft 227kts
07-Aug-21 12:41 36.467244 -121.492567 288 6085ft 225kts
07-Aug-21 12:43 36.492292 -121.569258 290 5124ft 162kts
07-Aug-21 12:44 36.506994 -121.612001 291 4603ft 127kts
07-Aug-21 12:44 36.518854 -121.646259 292 4189ft 124kts
07-Aug-21 12:46 36.533861 -121.690065 290 3101ft 102kts
07-Aug-21 12:46 36.544335 -121.720338 293 1997ft 117kts
07-Aug-21 12:47 36.556358 -121.755640 292 1904ft 114kts
07-Aug-21 12:48 36.569526 -121.793651 292 1097ft 116kts
07-Aug-21 12:50 36.583355 -121.833756 292 279ft 86kts
07-Aug-21 12:50 36.586817 -121.846020 220 257ft 14kts
07-Aug-21 12:51 36.586761 -121.846118 249 257ft 2kts
07-Aug-21 12:52 36.587963 -121.849885 294 257ft 15kts
07-Aug-21 12:53 36.588597 -121.853571 123 257ft 0kts

Navigation Log

Ident Type
Flight plan parsing failed, navigation log unavailable